createdAt,value
2022-11-30T00:01:41.676Z,30.80
2022-11-30T00:06:47.290Z,33.10
2022-11-30T00:11:53.172Z,33.20
2022-11-30T00:16:58.858Z,28.80
2022-11-30T00:22:05.075Z,30.70
2022-11-30T00:27:10.790Z,29.00
2022-11-30T00:32:16.717Z,31.10
2022-11-30T00:37:24.042Z,31.50
2022-11-30T00:42:29.897Z,32.80
2022-11-30T00:47:36.165Z,27.30
2022-11-30T00:52:43.934Z,25.80
2022-11-30T00:57:49.662Z,31.40
2022-11-30T01:02:56.841Z,33.30
2022-11-30T01:08:03.848Z,30.20
2022-11-30T01:13:10.311Z,32.20
2022-11-30T01:18:16.189Z,30.90
2022-11-30T01:23:21.970Z,34.90
2022-11-30T01:28:28.029Z,33.50
2022-11-30T01:33:34.238Z,34.60
2022-11-30T01:38:41.713Z,30.40
2022-11-30T01:43:49.767Z,34.40
2022-11-30T01:49:03.193Z,37.50
2022-11-30T01:54:12.708Z,36.30
2022-11-30T01:59:20.965Z,34.00
2022-11-30T02:04:31.830Z,37.90
2022-11-30T02:09:43.126Z,35.10
2022-11-30T02:14:53.346Z,34.70
2022-11-30T02:20:35.456Z,39.80
2022-11-30T02:25:47.784Z,36.90
2022-11-30T02:30:57.137Z,37.50
2022-11-30T02:36:06.464Z,36.70
2022-11-30T02:41:12.435Z,33.50
2022-11-30T02:46:24.260Z,32.40
2022-11-30T02:51:32.632Z,34.60
2022-11-30T02:56:38.384Z,31.60
2022-11-30T03:01:44.985Z,35.20
2022-11-30T03:06:51.045Z,38.50
2022-11-30T03:11:56.961Z,33.60
2022-11-30T03:17:02.882Z,32.30
2022-11-30T03:22:08.620Z,32.90
2022-11-30T03:27:14.468Z,34.40
2022-11-30T03:32:20.389Z,38.10
2022-11-30T03:37:26.210Z,34.50
2022-11-30T03:42:32.031Z,35.20
2022-11-30T03:47:38.356Z,34.40
2022-11-30T03:52:43.993Z,33.70
2022-11-30T03:57:49.656Z,35.60
2022-11-30T04:02:55.338Z,33.30
2022-11-30T04:08:01.080Z,30.40
2022-11-30T04:13:06.854Z,35.10
2022-11-30T04:18:12.741Z,34.40
2022-11-30T04:23:19.009Z,31.30
2022-11-30T04:28:24.688Z,32.70
2022-11-30T04:33:30.654Z,30.50
2022-11-30T04:38:37.998Z,32.90
2022-11-30T04:43:43.719Z,32.20
2022-11-30T04:48:49.449Z,32.10
2022-11-30T04:53:55.261Z,32.20
2022-11-30T04:59:02.508Z,33.30
2022-11-30T05:04:08.268Z,32.20
2022-11-30T05:09:13.916Z,33.10
2022-11-30T05:14:19.700Z,32.80
2022-11-30T05:19:25.560Z,31.00
2022-11-30T05:24:31.420Z,29.60
2022-11-30T05:29:37.679Z,33.90
2022-11-30T05:34:50.594Z,32.90
2022-11-30T05:39:57.617Z,32.00
2022-11-30T05:45:03.508Z,30.90
2022-11-30T05:50:10.624Z,34.20
2022-11-30T05:55:16.409Z,33.30
2022-11-30T06:00:23.353Z,36.80
2022-11-30T06:05:29.247Z,36.90
2022-11-30T06:10:36.653Z,29.80
2022-11-30T06:15:42.866Z,30.30
2022-11-30T06:20:48.463Z,33.10
2022-11-30T06:25:54.190Z,31.20
2022-11-30T06:31:01.107Z,33.60
2022-11-30T06:36:08.275Z,36.30
2022-11-30T06:41:14.142Z,35.20
2022-11-30T06:46:24.681Z,29.60
2022-11-30T06:51:30.429Z,25.90
2022-11-30T06:56:36.430Z,30.20
2022-11-30T07:01:42.187Z,29.50
2022-11-30T07:06:47.845Z,38.80
2022-11-30T07:11:53.630Z,32.10
2022-11-30T07:16:59.345Z,30.90
2022-11-30T07:22:05.375Z,32.70
2022-11-30T07:27:11.455Z,31.20
2022-11-30T07:32:17.230Z,38.70
2022-11-30T07:37:23.070Z,38.40
2022-11-30T07:42:28.778Z,30.80
2022-11-30T07:47:34.471Z,32.50
2022-11-30T07:52:41.236Z,37.60
2022-11-30T07:57:47.492Z,48.80
2022-11-30T08:02:53.271Z,38.70
2022-11-30T08:07:59.047Z,32.00
2022-11-30T08:13:04.759Z,29.90
2022-11-30T08:18:10.849Z,33.20
2022-11-30T08:23:16.637Z,37.20
2022-11-30T08:28:22.449Z,38.60
2022-11-30T08:33:30.884Z,36.60
2022-11-30T08:38:37.838Z,43.50
2022-11-30T08:43:43.511Z,34.40
2022-11-30T08:48:50.188Z,25.80
2022-11-30T08:53:55.831Z,22.90
2022-11-30T08:59:01.456Z,26.80
2022-11-30T09:04:07.221Z,32.40
2022-11-30T09:09:13.585Z,25.80
2022-11-30T09:14:19.318Z,35.00
2022-11-30T09:19:26.350Z,29.50
2022-11-30T09:24:32.063Z,24.30
2022-11-30T09:29:39.190Z,26.50
2022-11-30T09:34:44.844Z,38.70
2022-11-30T09:39:50.460Z,32.40
2022-11-30T09:45:02.449Z,26.60
2022-11-30T09:50:13.883Z,30.00
2022-11-30T09:55:27.149Z,24.20
2022-11-30T10:00:33.626Z,30.50
2022-11-30T10:05:48.202Z,29.60
2022-11-30T10:11:10.633Z,36.10
2022-11-30T10:16:28.449Z,29.90
2022-11-30T10:21:51.706Z,26.50
2022-11-30T10:26:58.801Z,30.70
2022-11-30T10:32:19.329Z,27.20
2022-11-30T10:37:34.240Z,36.90
2022-11-30T10:42:45.512Z,33.40
2022-11-30T10:47:56.908Z,27.10
2022-11-30T10:53:03.340Z,25.10
2022-11-30T10:58:21.317Z,32.10
2022-11-30T11:03:27.878Z,29.50
2022-11-30T11:08:34.338Z,36.30
2022-11-30T11:13:42.192Z,35.80
2022-11-30T11:18:56.094Z,35.00
2022-11-30T11:24:10.983Z,35.10
2022-11-30T11:29:31.463Z,26.70
2022-11-30T11:34:38.545Z,32.90
2022-11-30T11:39:54.888Z,40.70
2022-11-30T11:45:02.988Z,28.50
2022-11-30T11:51:04.429Z,27.10
2022-11-30T11:56:00.326Z,54.70
2022-11-30T12:01:38.649Z,40.90
2022-11-30T12:06:38.163Z,33.80
2022-11-30T12:11:45.996Z,27.50
2022-11-30T12:17:12.674Z,25.20
2022-11-30T12:22:33.040Z,28.50
2022-11-30T12:27:53.362Z,30.00
2022-11-30T12:33:10.805Z,30.70
2022-11-30T12:38:32.231Z,25.60
2022-11-30T12:43:48.659Z,25.80
2022-11-30T12:49:13.350Z,25.00
2022-11-30T12:54:23.966Z,37.20
2022-11-30T12:59:40.797Z,34.90
2022-11-30T13:04:57.665Z,51.90
2022-11-30T13:10:15.475Z,35.20
2022-11-30T13:15:23.204Z,40.70
2022-11-30T13:20:36.842Z,39.30
2022-11-30T13:31:21.404Z,60.40
2022-11-30T13:36:37.926Z,43.40
2022-11-30T13:41:46.343Z,38.40
2022-11-30T13:46:53.306Z,33.90
2022-11-30T13:52:22.205Z,41.60
2022-11-30T13:58:02.314Z,39.10
2022-11-30T14:03:28.406Z,26.00
2022-11-30T14:08:38.576Z,26.90
2022-11-30T14:13:45.734Z,25.50
2022-11-30T14:18:53.248Z,32.80
2022-11-30T14:24:02.109Z,27.70
2022-11-30T14:29:16.843Z,28.70
2022-11-30T14:34:24.875Z,28.90
2022-11-30T14:39:34.537Z,31.90
2022-11-30T14:44:42.437Z,25.70
2022-11-30T14:49:52.252Z,27.40
2022-11-30T14:55:13.187Z,25.70
2022-11-30T15:00:21.588Z,35.10
2022-11-30T15:05:30.748Z,37.70
2022-11-30T15:10:36.522Z,23.10
2022-11-30T15:15:52.074Z,33.50
2022-11-30T15:21:02.631Z,32.00
2022-11-30T15:26:17.208Z,34.70
2022-11-30T15:31:24.370Z,36.30
2022-11-30T15:36:35.894Z,39.00
2022-11-30T15:41:41.621Z,32.20
2022-11-30T15:46:59.755Z,36.10
2022-11-30T15:52:16.679Z,45.80
2022-11-30T15:57:24.537Z,44.30
2022-11-30T16:02:36.008Z,47.00
2022-11-30T16:07:52.732Z,39.30
2022-11-30T16:12:58.664Z,32.20
2022-11-30T16:18:19.091Z,34.60
2022-11-30T16:23:25.988Z,41.60
2022-11-30T16:28:31.789Z,46.20
2022-11-30T16:33:38.168Z,40.80
2022-11-30T16:38:47.187Z,32.80
2022-11-30T16:43:55.738Z,31.00
2022-11-30T16:49:01.838Z,31.40
2022-11-30T16:54:09.654Z,33.20
2022-11-30T16:59:20.557Z,29.80
2022-11-30T17:04:29.927Z,28.20
2022-11-30T17:09:36.377Z,25.40
2022-11-30T17:14:42.590Z,24.80
2022-11-30T17:19:52.459Z,22.30
2022-11-30T17:25:01.679Z,31.80
2022-11-30T17:30:10.424Z,21.10
2022-11-30T17:35:17.155Z,20.80
2022-11-30T17:40:22.888Z,18.80
2022-11-30T17:45:28.665Z,28.00
2022-11-30T17:50:41.473Z,25.00
2022-11-30T17:55:49.118Z,39.80
2022-11-30T18:00:55.333Z,41.20
2022-11-30T18:06:02.770Z,26.00
2022-11-30T18:11:13.722Z,33.80
2022-11-30T18:16:21.628Z,23.70
2022-11-30T18:21:29.897Z,21.50
2022-11-30T18:26:35.865Z,25.70
2022-11-30T18:31:41.725Z,43.00
2022-11-30T18:36:47.463Z,26.30
2022-11-30T18:41:53.238Z,30.50
2022-11-30T18:46:58.899Z,43.20
2022-11-30T18:52:04.787Z,42.90
2022-11-30T18:57:10.547Z,38.50
2022-11-30T19:02:19.119Z,36.80
2022-11-30T19:07:25.252Z,47.20
2022-11-30T19:12:31.040Z,29.90
2022-11-30T19:17:36.756Z,35.30
2022-11-30T19:22:42.655Z,36.90
2022-11-30T19:27:48.399Z,43.00
2022-11-30T19:32:54.453Z,38.60
2022-11-30T19:38:02.847Z,40.60
2022-11-30T19:43:08.541Z,38.60
2022-11-30T19:48:14.267Z,44.50
2022-11-30T19:53:20.397Z,30.30
2022-11-30T19:58:26.327Z,26.50
2022-11-30T20:03:35.897Z,26.00
2022-11-30T20:08:41.755Z,32.90
2022-11-30T20:13:47.792Z,22.60
2022-11-30T20:18:57.718Z,18.60
2022-11-30T20:24:06.101Z,20.40
2022-11-30T20:29:15.808Z,16.90
2022-11-30T20:34:21.501Z,19.60
2022-11-30T20:39:27.098Z,20.50
2022-11-30T20:44:32.773Z,32.30
2022-11-30T20:49:38.451Z,22.70
2022-11-30T20:54:44.261Z,25.90
2022-11-30T20:59:50.043Z,25.50
2022-11-30T21:04:57.434Z,25.50
2022-11-30T21:10:03.222Z,23.00
2022-11-30T21:15:10.545Z,22.50
2022-11-30T21:20:16.586Z,22.70
2022-11-30T21:25:22.509Z,21.60
2022-11-30T21:30:28.336Z,20.20
2022-11-30T21:35:34.215Z,23.40
2022-11-30T21:40:40.222Z,22.30
2022-11-30T21:45:55.716Z,24.10
2022-11-30T21:51:03.145Z,27.30
2022-11-30T21:56:13.128Z,24.30
2022-11-30T22:01:25.567Z,28.00
2022-11-30T22:06:33.510Z,24.30
2022-11-30T22:11:42.376Z,23.30
2022-11-30T22:16:48.065Z,24.60
2022-11-30T22:21:53.908Z,24.90
2022-11-30T22:26:59.550Z,25.50
2022-11-30T22:32:05.663Z,22.20
2022-11-30T22:37:11.456Z,27.10
2022-11-30T22:42:17.096Z,22.30
2022-11-30T22:47:22.922Z,20.90
2022-11-30T22:52:54.917Z,23.90
2022-11-30T22:57:55.031Z,25.30
2022-11-30T23:03:00.821Z,20.00
2022-11-30T23:08:07.087Z,18.00
2022-11-30T23:13:12.890Z,18.20
2022-11-30T23:18:18.625Z,18.40
2022-11-30T23:23:24.881Z,20.80
2022-11-30T23:28:30.504Z,19.50
2022-11-30T23:33:36.432Z,22.40
2022-11-30T23:38:42.309Z,19.70
2022-11-30T23:43:48.207Z,18.40
2022-11-30T23:48:55.920Z,20.70
2022-11-30T23:54:01.880Z,18.60
2022-11-30T23:59:07.449Z,20.50
